Wetterdaten: Woche 20.06.16 - 26.06.16 (KW25)
Datum Zeit Temp. I. Temp. A. Feuchte I. Feuchte A. Luftdruck Regen Wind Richtung Sonnenschein UV Solar Taupunkt Windchill Windben
20.06.2016 00:00 24,0 C 12,9 C 57 % 90 % 1022,8 hPa 0,0 l/m 0,1 km/h (0 Bft) N-NW 0,00 h 0,0 UV-I 0 W/m 11,3 C 12,9 C 0,5 km/h (0 Bft)
20.06.2016 01:00 23,9 C 12,5 C 57 % 90 % 1022,3 hPa 0,0 l/m 0,2 km/h (0 Bft) N 0,00 h 0,0 UV-I 0 W/m 10,9 C 12,5 C 0,9 km/h (0 Bft)
20.06.2016 02:00 23,9 C 11,3 C 57 % 93 % 1022,1 hPa 0,0 l/m 0,0 km/h (0 Bft) N 0,00 h 0,0 UV-I 0 W/m 10,1 C 11,3 C 0,1 km/h (0 Bft)
20.06.2016 03:00 23,8 C 10,6 C 57 % 94 % 1022,0 hPa 0,0 l/m 0,0 km/h (0 Bft) N 0,00 h 0,0 UV-I 0 W/m 9,7 C 10,6 C 0,1 km/h (0 Bft)
20.06.2016 04:00 23,8 C 9,9 C 58 % 95 % 1022,2 hPa 0,0 l/m 0,0 km/h (0 Bft) N 0,00 h 0,0 UV-I 0 W/m 9,2 C 9,9 C 0,0 km/h (0 Bft)
20.06.2016 05:00 23,8 C 9,2 C 58 % 96 % 1022,0 hPa 0,0 l/m 0,0 km/h (0 Bft) N 0,00 h 0,0 UV-I 12 W/m 8,6 C 9,2 C 0,0 km/h (0 Bft)
20.06.2016 06:00 23,8 C 9,7 C 58 % 97 % 1021,9 hPa 0,0 l/m 0,5 km/h (0 Bft) NW 0,00 h 0,0 UV-I 24 W/m 9,2 C 9,7 C 1,1 km/h (1 Bft)
20.06.2016 07:00 23,8 C 11,7 C 58 % 94 % 1021,8 hPa 0,0 l/m 4,8 km/h (1 Bft) N 0,62 h 1,0 UV-I 205 W/m 10,7 C 11,5 C 7,9 km/h (2 Bft)
20.06.2016 08:00 23,9 C 13,1 C 58 % 89 % 1021,9 hPa 0,0 l/m 2,7 km/h (1 Bft) W-NW 0,97 h 1,7 UV-I 426 W/m 11,3 C 13,0 C 5,0 km/h (1 Bft)
20.06.2016 09:00 24,0 C 15,9 C 57 % 79 % 1021,7 hPa 0,0 l/m 0,3 km/h (0 Bft) W-NW 1,00 h 3,0 UV-I 612 W/m 12,3 C 15,9 C 1,5 km/h (1 Bft)
20.06.2016 10:00 23,4 C 18,1 C 51 % 66 % 1021,5 hPa 0,0 l/m 2,3 km/h (1 Bft) NW 1,00 h 4,5 UV-I 773 W/m 11,6 C 18,0 C 5,1 km/h (1 Bft)
20.06.2016 11:00 23,1 C 19,6 C 50 % 60 % 1021,3 hPa 0,0 l/m 1,5 km/h (1 Bft) W 1,00 h 5,8 UV-I 866 W/m 11,6 C 19,6 C 4,0 km/h (1 Bft)
20.06.2016 12:00 23,5 C 19,7 C 51 % 59 % 1020,9 hPa 0,0 l/m 2,3 km/h (1 Bft) W-NW 1,00 h 4,2 UV-I 484 W/m 11,4 C 19,6 C 5,7 km/h (1 Bft)
20.06.2016 13:00 23,7 C 20,4 C 52 % 54 % 1020,6 hPa 0,0 l/m 4,0 km/h (1 Bft) W-SW 1,00 h 5,8 UV-I 709 W/m 10,6 C 20,2 C 8,3 km/h (2 Bft)
20.06.2016 14:00 23,8 C 21,4 C 51 % 51 % 1020,0 hPa 0,0 l/m 4,4 km/h (1 Bft) S 0,97 h 6,0 UV-I 816 W/m 10,8 C 21,2 C 9,5 km/h (2 Bft)
20.06.2016 15:00 24,0 C 21,2 C 51 % 51 % 1019,4 hPa 0,0 l/m 4,6 km/h (1 Bft) W-SW 0,97 h 4,9 UV-I 676 W/m 10,8 C 21,1 C 9,2 km/h (2 Bft)
20.06.2016 16:00 24,1 C 20,9 C 51 % 53 % 1018,8 hPa 0,0 l/m 2,9 km/h (1 Bft) W 0,55 h 3,0 UV-I 389 W/m 10,9 C 20,8 C 6,4 km/h (2 Bft)
20.06.2016 17:00 24,2 C 21,0 C 49 % 51 % 1018,4 hPa 0,0 l/m 4,2 km/h (1 Bft) SW 0,75 h 2,2 UV-I 374 W/m 10,5 C 20,9 C 9,4 km/h (2 Bft)
20.06.2016 18:00 24,0 C 20,4 C 48 % 50 % 1018,2 hPa 0,0 l/m 4,0 km/h (1 Bft) SW 0,12 h 1,0 UV-I 103 W/m 9,7 C 20,3 C 8,5 km/h (2 Bft)
20.06.2016 19:00 24,1 C 19,3 C 48 % 54 % 1018,0 hPa 0,0 l/m 2,2 km/h (1 Bft) S 0,00 h 0,0 UV-I 47 W/m 9,8 C 19,3 C 5,1 km/h (1 Bft)
20.06.2016 20:00 24,2 C 18,3 C 49 % 60 % 1018,0 hPa 0,0 l/m 0,3 km/h (0 Bft) S-SW 0,00 h 0,0 UV-I 30 W/m 10,5 C 18,3 C 1,0 km/h (0 Bft)
20.06.2016 21:00 24,5 C 17,1 C 51 % 66 % 1018,0 hPa 0,0 l/m 0,0 km/h (0 Bft) N 0,00 h 0,0 UV-I 6 W/m 10,6 C 17,1 C 0,1 km/h (0 Bft)
20.06.2016 22:00 24,4 C 16,0 C 51 % 74 % 1018,2 hPa 0,0 l/m 0,0 km/h (0 Bft) N 0,00 h 0,0 UV-I 0 W/m 11,3 C 16,0 C 0,0 km/h (0 Bft)
20.06.2016 23:00 24,2 C 15,1 C 52 % 78 % 1018,1 hPa 0,0 l/m 0,0 km/h (0 Bft) N 0,00 h 0,0 UV-I 0 W/m 11,3 C 15,1 C 0,0 km/h (0 Bft)
21.06.2016 00:00 24,1 C 15,2 C 53 % 76 % 1018,1 hPa 0,0 l/m 0,0 km/h (0 Bft) N 0,00 h 0,0 UV-I 0 W/m 11,1 C 15,2 C 0,0 km/h (0 Bft)
21.06.2016 01:00 23,9 C 15,4 C 53 % 75 % 1017,8 hPa 0,0 l/m 0,0 km/h (0 Bft) N 0,00 h 0,0 UV-I 0 W/m 11,0 C 15,4 C 0,3 km/h (0 Bft)
21.06.2016 02:00 23,9 C 15,4 C 54 % 74 % 1018,3 hPa 0,0 l/m 2,2 km/h (1 Bft) SW 0,00 h 0,0 UV-I 0 W/m 10,8 C 15,3 C 5,4 km/h (1 Bft)
21.06.2016 03:00 23,9 C 15,1 C 54 % 76 % 1018,5 hPa 0,0 l/m 1,0 km/h (0 Bft) SW 0,00 h 0,0 UV-I 0 W/m 10,9 C 15,1 C 3,2 km/h (1 Bft)
21.06.2016 04:00 23,9 C 14,4 C 54 % 81 % 1018,3 hPa 0,0 l/m 1,2 km/h (1 Bft) S 0,00 h 0,0 UV-I 0 W/m 11,3 C 14,4 C 3,6 km/h (1 Bft)
21.06.2016 05:00 23,8 C 14,2 C 55 % 84 % 1018,4 hPa 0,0 l/m 3,1 km/h (1 Bft) S 0,00 h 0,0 UV-I 15 W/m 11,6 C 14,1 C 7,3 km/h (2 Bft)
21.06.2016 06:00 23,8 C 14,2 C 55 % 85 % 1018,9 hPa 0,0 l/m 2,6 km/h (1 Bft) SW 0,00 h 0,0 UV-I 22 W/m 11,8 C 14,0 C 7,0 km/h (2 Bft)
21.06.2016 07:00 23,8 C 14,3 C 55 % 86 % 1019,0 hPa 0,0 l/m 5,5 km/h (1 Bft) SW 0,13 h 0,6 UV-I 111 W/m 12,0 C 14,0 C 11,7 km/h (2 Bft)
21.06.2016 08:00 24,1 C 14,5 C 56 % 86 % 1019,3 hPa 0,0 l/m 4,3 km/h (1 Bft) W-SW 0,00 h 0,6 UV-I 67 W/m 12,2 C 14,2 C 9,6 km/h (2 Bft)
21.06.2016 09:00 24,2 C 14,7 C 55 % 87 % 1019,8 hPa 0,0 l/m 2,9 km/h (1 Bft) S-SW 0,00 h 0,7 UV-I 76 W/m 12,6 C 14,6 C 7,0 km/h (2 Bft)
21.06.2016 10:00 24,2 C 14,8 C 55 % 90 % 1020,4 hPa 0,0 l/m 3,0 km/h (1 Bft) SW 0,53 h 1,5 UV-I 163 W/m 13,1 C 14,7 C 7,4 km/h (2 Bft)
21.06.2016 11:00 24,1 C 15,2 C 55 % 88 % 1021,0 hPa 0,0 l/m 2,3 km/h (1 Bft) W-SW 0,00 h 1,0 UV-I 85 W/m 13,2 C 15,2 C 6,1 km/h (2 Bft)
21.06.2016 12:00 24,2 C 15,6 C 55 % 87 % 1021,3 hPa 0,0 l/m 1,8 km/h (1 Bft) W-SW 0,17 h 1,2 UV-I 109 W/m 13,3 C 15,5 C 4,7 km/h (1 Bft)
21.06.2016 13:00 24,2 C 16,2 C 55 % 84 % 1021,7 hPa 0,0 l/m 3,6 km/h (1 Bft) W 0,43 h 2,3 UV-I 213 W/m 13,5 C 16,1 C 7,6 km/h (2 Bft)
21.06.2016 14:00 23,8 C 17,8 C 55 % 78 % 1022,0 hPa 0,0 l/m 3,4 km/h (1 Bft) S 1,00 h 3,8 UV-I 365 W/m 14,0 C 17,8 C 6,6 km/h (2 Bft)
21.06.2016 15:00 23,8 C 18,3 C 55 % 77 % 1022,0 hPa 0,0 l/m 2,2 km/h (1 Bft) S 1,00 h 2,4 UV-I 266 W/m 14,2 C 18,2 C 5,2 km/h (1 Bft)
21.06.2016 16:00 23,9 C 19,7 C 55 % 73 % 1022,0 hPa 0,0 l/m 2,3 km/h (1 Bft) W-SW 0,97 h 3,6 UV-I 460 W/m 14,6 C 19,7 C 6,0 km/h (2 Bft)
21.06.2016 17:00 24,1 C 20,1 C 55 % 69 % 1021,8 hPa 0,0 l/m 1,9 km/h (1 Bft) S 0,73 h 2,2 UV-I 361 W/m 14,3 C 20,1 C 4,6 km/h (1 Bft)
21.06.2016 18:00 24,2 C 19,7 C 55 % 69 % 1021,7 hPa 0,0 l/m 1,0 km/h (0 Bft) S 0,00 h 1,0 UV-I 82 W/m 13,8 C 19,7 C 3,3 km/h (1 Bft)
21.06.2016 19:00 24,4 C 19,3 C 55 % 71 % 1021,8 hPa 0,0 l/m 1,9 km/h (1 Bft) S 0,00 h 0,6 UV-I 55 W/m 13,9 C 19,2 C 4,1 km/h (1 Bft)
21.06.2016 20:00 24,4 C 18,4 C 56 % 75 % 1022,0 hPa 0,0 l/m 0,2 km/h (0 Bft) S 0,00 h 0,0 UV-I 20 W/m 14,0 C 18,4 C 0,6 km/h (0 Bft)
21.06.2016 21:00 24,5 C 17,1 C 56 % 82 % 1022,3 hPa 0,0 l/m 0,1 km/h (0 Bft) O 0,00 h 0,0 UV-I 5 W/m 14,0 C 17,1 C 0,2 km/h (0 Bft)
21.06.2016 22:00 24,5 C 16,4 C 56 % 84 % 1022,7 hPa 0,0 l/m 0,0 km/h (0 Bft) N 0,00 h 0,0 UV-I 0 W/m 13,7 C 16,4 C 0,0 km/h (0 Bft)
21.06.2016 23:00 24,2 C 15,8 C 57 % 87 % 1023,0 hPa 0,0 l/m 0,0 km/h (0 Bft) N 0,00 h 0,0 UV-I 0 W/m 13,6 C 15,8 C 0,0 km/h (0 Bft)
22.06.2016 00:00 24,1 C 15,4 C 57 % 89 % 1023,1 hPa 0,0 l/m 0,0 km/h (0 Bft) N 0,00 h 0,0 UV-I 0 W/m 13,6 C 15,4 C 0,0 km/h (0 Bft)
22.06.2016 01:00 24,0 C 14,9 C 58 % 92 % 1023,3 hPa 0,0 l/m 0,0 km/h (0 Bft) N 0,00 h 0,0 UV-I 0 W/m 13,6 C 14,9 C 0,0 km/h (0 Bft)
22.06.2016 02:00 24,0 C 14,8 C 58 % 92 % 1023,4 hPa 0,0 l/m 0,0 km/h (0 Bft) N 0,00 h 0,0 UV-I 0 W/m 13,6 C 14,8 C 0,0 km/h (0 Bft)
22.06.2016 03:00 23,9 C 14,9 C 58 % 92 % 1023,4 hPa 0,0 l/m 0,0 km/h (0 Bft) N 0,00 h 0,0 UV-I 0 W/m 13,6 C 14,9 C 0,0 km/h (0 Bft)
22.06.2016 04:00 23,9 C 15,0 C 58 % 92 % 1023,3 hPa 0,0 l/m 0,1 km/h (0 Bft) O 0,00 h 0,0 UV-I 0 W/m 13,7 C 15,0 C 0,5 km/h (0 Bft)
22.06.2016 05:00 23,9 C 14,9 C 58 % 93 % 1023,4 hPa 0,0 l/m 0,2 km/h (0 Bft) O 0,00 h 0,0 UV-I 7 W/m 13,8 C 14,9 C 0,5 km/h (0 Bft)
22.06.2016 06:00 23,9 C 15,4 C 58 % 93 % 1023,9 hPa 0,0 l/m 0,1 km/h (0 Bft) N-NO 0,00 h 0,0 UV-I 22 W/m 14,2 C 15,4 C 0,3 km/h (0 Bft)
22.06.2016 07:00 23,9 C 16,4 C 58 % 91 % 1024,1 hPa 0,0 l/m 0,0 km/h (0 Bft) N 0,00 h 0,5 UV-I 74 W/m 15,0 C 16,4 C 0,0 km/h (0 Bft)
22.06.2016 08:00 24,1 C 17,6 C 59 % 87 % 1024,2 hPa 0,0 l/m 0,1 km/h (0 Bft) SO 0,73 h 1,2 UV-I 187 W/m 15,5 C 17,6 C 0,3 km/h (0 Bft)
22.06.2016 09:00 24,3 C 19,0 C 59 % 84 % 1024,2 hPa 0,0 l/m 1,7 km/h (1 Bft) S 0,95 h 2,3 UV-I 282 W/m 16,2 C 19,0 C 3,5 km/h (1 Bft)
22.06.2016 10:00 24,3 C 20,5 C 60 % 79 % 1024,0 hPa 0,0 l/m 1,7 km/h (1 Bft) W-SW 0,93 h 3,3 UV-I 370 W/m 16,7 C 20,5 C 4,2 km/h (1 Bft)
22.06.2016 11:00 24,3 C 21,8 C 60 % 74 % 1024,0 hPa 0,0 l/m 1,9 km/h (1 Bft) S 1,00 h 4,1 UV-I 553 W/m 17,0 C 21,8 C 4,6 km/h (1 Bft)
22.06.2016 12:00 24,3 C 22,6 C 59 % 69 % 1023,9 hPa 0,0 l/m 1,9 km/h (1 Bft) SW 1,00 h 5,1 UV-I 541 W/m 16,7 C 22,6 C 5,5 km/h (1 Bft)
22.06.2016 13:00 24,3 C 23,8 C 59 % 65 % 1023,7 hPa 0,0 l/m 3,5 km/h (1 Bft) W-SW 1,00 h 6,5 UV-I 770 W/m 16,8 C 23,7 C 7,4 km/h (2 Bft)
22.06.2016 14:00 24,4 C 23,9 C 59 % 64 % 1023,4 hPa 0,0 l/m 1,2 km/h (1 Bft) W-SW 1,00 h 4,4 UV-I 442 W/m 16,5 C 23,8 C 3,2 km/h (1 Bft)
22.06.2016 15:00 24,7 C 24,9 C 59 % 61 % 1023,0 hPa 0,0 l/m 2,1 km/h (1 Bft) S 1,00 h 5,0 UV-I 730 W/m 16,8 C 24,9 C 4,4 km/h (1 Bft)
22.06.2016 16:00 24,5 C 25,3 C 59 % 59 % 1022,8 hPa 0,0 l/m 1,3 km/h (1 Bft) S 1,00 h 3,7 UV-I 503 W/m 16,6 C 25,3 C 3,3 km/h (1 Bft)
22.06.2016 17:00 24,7 C 25,4 C 58 % 57 % 1022,5 hPa 0,0 l/m 2,3 km/h (1 Bft) S 0,92 h 2,4 UV-I 424 W/m 16,4 C 25,4 C 4,4 km/h (1 Bft)
22.06.2016 18:00 24,8 C 25,1 C 58 % 57 % 1022,4 hPa 0,0 l/m 1,7 km/h (1 Bft) W 0,00 h 1,0 UV-I 71 W/m 16,1 C 25,1 C 4,0 km/h (1 Bft)
22.06.2016 19:00 24,7 C 24,3 C 58 % 60 % 1022,4 hPa 0,0 l/m 0,4 km/h (0 Bft) O-NO 0,00 h 0,0 UV-I 28 W/m 16,0 C 24,3 C 1,6 km/h (1 Bft)
22.06.2016 20:00 24,7 C 24,0 C 58 % 60 % 1022,5 hPa 0,0 l/m 0,0 km/h (0 Bft) N 0,00 h 0,0 UV-I 15 W/m 15,9 C 24,0 C 0,0 km/h (0 Bft)
22.06.2016 21:00 24,7 C 21,8 C 59 % 71 % 1022,8 hPa 0,0 l/m 0,0 km/h (0 Bft) N 0,00 h 0,0 UV-I 7 W/m 16,3 C 21,8 C 0,0 km/h (0 Bft)
22.06.2016 22:00 24,6 C 19,8 C 59 % 80 % 1023,0 hPa 0,0 l/m 0,0 km/h (0 Bft) N 0,00 h 0,0 UV-I 0 W/m 16,2 C 19,8 C 0,0 km/h (0 Bft)
22.06.2016 23:00 24,6 C 18,0 C 59 % 87 % 1023,2 hPa 0,0 l/m 0,0 km/h (0 Bft) N 0,00 h 0,0 UV-I 0 W/m 15,8 C 18,0 C 0,0 km/h (0 Bft)
23.06.2016 00:00 24,5 C 16,6 C 59 % 91 % 1023,2 hPa 0,0 l/m 0,0 km/h (0 Bft) N 0,00 h 0,0 UV-I 0 W/m 15,1 C 16,6 C 0,0 km/h (0 Bft)
23.06.2016 01:00 24,4 C 15,9 C 59 % 92 % 1023,3 hPa 0,0 l/m 0,0 km/h (0 Bft) N 0,00 h 0,0 UV-I 0 W/m 14,7 C 15,9 C 0,0 km/h (0 Bft)
23.06.2016 02:00 24,4 C 15,2 C 59 % 94 % 1023,2 hPa 0,0 l/m 0,0 km/h (0 Bft) N 0,00 h 0,0 UV-I 0 W/m 14,1 C 15,2 C 0,0 km/h (0 Bft)
23.06.2016 03:00 24,3 C 14,3 C 60 % 95 % 1023,0 hPa 0,0 l/m 0,0 km/h (0 Bft) N 0,00 h 0,0 UV-I 0 W/m 13,5 C 14,3 C 0,0 km/h (0 Bft)
23.06.2016 04:00 24,3 C 14,0 C 60 % 95 % 1023,0 hPa 0,0 l/m 0,0 km/h (0 Bft) N 0,00 h 0,0 UV-I 0 W/m 13,3 C 14,0 C 0,0 km/h (0 Bft)
23.06.2016 05:00 24,3 C 13,7 C 60 % 95 % 1022,9 hPa 0,0 l/m 0,0 km/h (0 Bft) N 0,00 h 0,0 UV-I 9 W/m 12,9 C 13,7 C 0,0 km/h (0 Bft)
23.06.2016 06:00 24,2 C 14,4 C 59 % 94 % 1023,0 hPa 0,0 l/m 0,0 km/h (0 Bft) N 0,00 h 0,0 UV-I 17 W/m 13,4 C 14,4 C 0,0 km/h (0 Bft)
23.06.2016 07:00 23,7 C 17,9 C 59 % 88 % 1022,8 hPa 0,0 l/m 0,0 km/h (0 Bft) N 0,60 h 1,1 UV-I 203 W/m 15,9 C 17,9 C 0,0 km/h (0 Bft)
23.06.2016 08:00 24,1 C 22,7 C 59 % 71 % 1022,6 hPa 0,0 l/m 3,9 km/h (1 Bft) SO 1,00 h 2,0 UV-I 470 W/m 17,1 C 22,5 C 7,0 km/h (2 Bft)
23.06.2016 09:00 24,4 C 24,6 C 60 % 63 % 1022,6 hPa 0,0 l/m 7,3 km/h (2 Bft) SO 1,00 h 3,5 UV-I 615 W/m 17,1 C 24,2 C 11,7 km/h (2 Bft)
23.06.2016 10:00 24,5 C 25,8 C 60 % 58 % 1022,5 hPa 0,0 l/m 7,3 km/h (2 Bft) O-SO 1,00 h 5,2 UV-I 735 W/m 16,9 C 25,5 C 13,6 km/h (3 Bft)
23.06.2016 11:00 24,6 C 26,9 C 60 % 54 % 1022,4 hPa 0,0 l/m 5,2 km/h (1 Bft) SO 1,00 h 6,7 UV-I 819 W/m 16,7 C 26,8 C 11,9 km/h (2 Bft)
23.06.2016 12:00 24,5 C 27,9 C 61 % 49 % 1021,9 hPa 0,0 l/m 5,9 km/h (2 Bft) O-SO 1,00 h 7,8 UV-I 865 W/m 16,3 C 27,8 C 13,2 km/h (3 Bft)
23.06.2016 13:00 24,6 C 28,5 C 60 % 47 % 1021,3 hPa 0,0 l/m 4,0 km/h (1 Bft) O-SO 1,00 h 7,9 UV-I 868 W/m 15,9 C 28,5 C 10,7 km/h (2 Bft)
23.06.2016 14:00 24,7 C 29,1 C 60 % 48 % 1020,7 hPa 0,0 l/m 4,5 km/h (1 Bft) O-SO 1,00 h 7,2 UV-I 831 W/m 16,9 C 29,1 C 11,3 km/h (2 Bft)
23.06.2016 15:00 24,7 C 29,7 C 60 % 47 % 1020,2 hPa 0,0 l/m 4,2 km/h (1 Bft) O-SO 1,00 h 5,9 UV-I 754 W/m 17,2 C 29,7 C 10,4 km/h (2 Bft)
23.06.2016 16:00 24,8 C 29,7 C 60 % 46 % 1019,7 hPa 0,0 l/m 4,5 km/h (1 Bft) O-SO 1,00 h 4,3 UV-I 602 W/m 16,9 C 29,6 C 10,5 km/h (2 Bft)
23.06.2016 17:00 24,8 C 29,7 C 60 % 46 % 1019,1 hPa 0,0 l/m 4,6 km/h (1 Bft) O-SO 0,92 h 2,6 UV-I 408 W/m 16,8 C 29,6 C 10,1 km/h (2 Bft)
23.06.2016 18:00 25,0 C 28,9 C 60 % 50 % 1018,8 hPa 0,0 l/m 2,7 km/h (1 Bft) O-SO 0,00 h 0,0 UV-I 38 W/m 17,5 C 28,9 C 8,3 km/h (2 Bft)
23.06.2016 19:00 25,2 C 28,1 C 61 % 53 % 1018,6 hPa 0,0 l/m 1,4 km/h (1 Bft) O-SO 0,00 h 0,0 UV-I 25 W/m 17,6 C 28,1 C 5,3 km/h (1 Bft)
23.06.2016 20:00 25,4 C 27,1 C 61 % 54 % 1018,4 hPa 0,0 l/m 0,2 km/h (0 Bft) SO 0,00 h 0,0 UV-I 15 W/m 17,1 C 27,1 C 1,0 km/h (0 Bft)
23.06.2016 21:00 25,4 C 25,2 C 60 % 61 % 1018,4 hPa 0,0 l/m 0,1 km/h (0 Bft) O-SO 0,00 h 0,0 UV-I 6 W/m 17,1 C 25,2 C 0,4 km/h (0 Bft)
23.06.2016 22:00 25,1 C 23,0 C 61 % 69 % 1018,4 hPa 0,0 l/m 0,0 km/h (0 Bft) N 0,00 h 0,0 UV-I 0 W/m 16,9 C 23,0 C 0,0 km/h (0 Bft)
23.06.2016 23:00 24,9 C 22,9 C 61 % 68 % 1018,2 hPa 0,0 l/m 1,2 km/h (1 Bft) SO 0,00 h 0,0 UV-I 0 W/m 16,7 C 22,9 C 2,8 km/h (1 Bft)
24.06.2016 00:00 24,7 C 22,8 C 61 % 66 % 1018,0 hPa 0,0 l/m 1,6 km/h (1 Bft) O-SO 0,00 h 0,0 UV-I 0 W/m 16,2 C 22,8 C 4,8 km/h (1 Bft)
24.06.2016 01:00 24,7 C 21,6 C 60 % 70 % 1017,8 hPa 0,0 l/m 0,6 km/h (0 Bft) O-NO 0,00 h 0,0 UV-I 0 W/m 16,0 C 21,6 C 2,1 km/h (1 Bft)
24.06.2016 02:00 24,6 C 20,3 C 60 % 75 % 1017,7 hPa 0,0 l/m 1,5 km/h (1 Bft) O-NO 0,00 h 0,0 UV-I 0 W/m 15,7 C 20,3 C 3,0 km/h (1 Bft)
24.06.2016 03:00 24,5 C 18,5 C 60 % 82 % 1017,5 hPa 0,0 l/m 1,4 km/h (1 Bft) O-NO 0,00 h 0,0 UV-I 0 W/m 15,3 C 18,5 C 2,9 km/h (1 Bft)
24.06.2016 04:00 24,4 C 17,6 C 60 % 85 % 1017,3 hPa 0,0 l/m 0,4 km/h (0 Bft) O-NO 0,00 h 0,0 UV-I 0 W/m 15,0 C 17,6 C 0,8 km/h (0 Bft)
24.06.2016 05:00 24,4 C 16,1 C 60 % 90 % 1017,4 hPa 0,0 l/m 0,0 km/h (0 Bft) N 0,00 h 0,0 UV-I 9 W/m 14,5 C 16,1 C 0,0 km/h (0 Bft)
24.06.2016 06:00 24,4 C 16,3 C 60 % 90 % 1017,2 hPa 0,0 l/m 0,0 km/h (0 Bft) N 0,00 h 0,0 UV-I 18 W/m 14,7 C 16,3 C 0,0 km/h (0 Bft)
24.06.2016 07:00 24,4 C 19,8 C 60 % 81 % 1017,1 hPa 0,0 l/m 0,0 km/h (0 Bft) N 0,58 h 1,1 UV-I 208 W/m 16,5 C 19,8 C 0,0 km/h (0 Bft)
24.06.2016 08:00 24,4 C 23,9 C 61 % 69 % 1016,9 hPa 0,0 l/m 0,3 km/h (0 Bft) SO 1,00 h 2,0 UV-I 468 W/m 17,9 C 23,9 C 1,0 km/h (0 Bft)
24.06.2016 09:00 24,6 C 26,0 C 61 % 63 % 1016,5 hPa 0,0 l/m 4,6 km/h (1 Bft) SO 1,00 h 3,5 UV-I 619 W/m 18,3 C 25,8 C 9,0 km/h (2 Bft)
24.06.2016 10:00 24,8 C 27,6 C 61 % 59 % 1016,3 hPa 0,0 l/m 1,9 km/h (1 Bft) O-SO 1,00 h 5,1 UV-I 735 W/m 18,8 C 27,6 C 5,4 km/h (1 Bft)
24.06.2016 11:00 25,0 C 28,7 C 62 % 52 % 1016,0 hPa 0,0 l/m 5,5 km/h (1 Bft) SO 1,00 h 6,7 UV-I 825 W/m 17,8 C 28,6 C 11,4 km/h (2 Bft)
24.06.2016 12:00 25,0 C 30,0 C 62 % 49 % 1015,6 hPa 0,0 l/m 3,2 km/h (1 Bft) O 1,00 h 7,7 UV-I 869 W/m 18,2 C 30,0 C 7,8 km/h (2 Bft)
24.06.2016 13:00 25,1 C 31,0 C 61 % 42 % 1015,2 hPa 0,0 l/m 2,6 km/h (1 Bft) O-NO 1,00 h 7,9 UV-I 879 W/m 16,3 C 31,0 C 6,9 km/h (2 Bft)
24.06.2016 14:00 25,1 C 31,6 C 61 % 37 % 1014,6 hPa 0,0 l/m 3,8 km/h (1 Bft) O-SO 1,00 h 7,3 UV-I 844 W/m 15,0 C 31,6 C 8,1 km/h (2 Bft)
24.06.2016 15:00 25,2 C 31,7 C 61 % 37 % 1014,1 hPa 0,0 l/m 4,7 km/h (1 Bft) SO 1,00 h 5,9 UV-I 760 W/m 15,4 C 31,7 C 8,8 km/h (2 Bft)
24.06.2016 16:00 25,3 C 31,9 C 61 % 35 % 1013,5 hPa 0,0 l/m 5,1 km/h (1 Bft) SO 1,00 h 4,2 UV-I 606 W/m 14,6 C 31,8 C 9,7 km/h (2 Bft)
24.06.2016 17:00 25,3 C 31,4 C 61 % 36 % 1013,0 hPa 0,0 l/m 4,8 km/h (1 Bft) S-SO 0,93 h 2,5 UV-I 408 W/m 14,4 C 31,4 C 9,2 km/h (2 Bft)
24.06.2016 18:00 25,6 C 30,7 C 60 % 39 % 1012,9 hPa 0,0 l/m 2,5 km/h (1 Bft) SO 0,00 h 1,3 UV-I 49 W/m 15,1 C 30,7 C 6,0 km/h (2 Bft)
24.06.2016 19:00 25,9 C 29,9 C 61 % 41 % 1012,7 hPa 0,0 l/m 0,8 km/h (0 Bft) O-SO 0,00 h 0,0 UV-I 32 W/m 15,4 C 29,9 C 2,2 km/h (1 Bft)
24.06.2016 20:00 25,9 C 28,4 C 61 % 45 % 1012,6 hPa 0,0 l/m 0,3 km/h (0 Bft) O-NO 0,00 h 0,0 UV-I 17 W/m 15,3 C 28,4 C 1,1 km/h (1 Bft)
24.06.2016 21:00 25,9 C 25,9 C 61 % 56 % 1012,8 hPa 0,0 l/m 0,3 km/h (0 Bft) O-NO 0,00 h 0,0 UV-I 7 W/m 16,5 C 25,9 C 1,3 km/h (1 Bft)
24.06.2016 22:00 25,8 C 23,6 C 61 % 69 % 1012,8 hPa 0,0 l/m 0,0 km/h (0 Bft) N 0,00 h 0,0 UV-I 0 W/m 17,5 C 23,6 C 0,2 km/h (0 Bft)
24.06.2016 23:00 25,6 C 22,9 C 61 % 73 % 1012,5 hPa 0,0 l/m 0,2 km/h (0 Bft) O-NO 0,00 h 0,0 UV-I 0 W/m 17,9 C 22,9 C 0,9 km/h (0 Bft)
25.06.2016 00:00 25,5 C 22,0 C 62 % 78 % 1012,4 hPa 0,0 l/m 2,2 km/h (1 Bft) N 0,00 h 0,0 UV-I 0 W/m 17,9 C 22,0 C 4,1 km/h (1 Bft)
25.06.2016 01:00 25,4 C 20,8 C 62 % 81 % 1012,2 hPa 0,0 l/m 0,6 km/h (0 Bft) N 0,00 h 0,0 UV-I 0 W/m 17,5 C 20,8 C 1,5 km/h (1 Bft)
25.06.2016 02:00 25,3 C 19,3 C 62 % 87 % 1011,6 hPa 0,0 l/m 0,0 km/h (0 Bft) N 0,00 h 0,0 UV-I 0 W/m 17,1 C 19,3 C 0,0 km/h (0 Bft)
25.06.2016 03:00 25,2 C 18,4 C 62 % 90 % 1011,0 hPa 0,0 l/m 0,0 km/h (0 Bft) N 0,00 h 0,0 UV-I 0 W/m 16,7 C 18,4 C 0,0 km/h (0 Bft)
25.06.2016 04:00 25,2 C 17,7 C 62 % 92 % 1010,3 hPa 0,0 l/m 0,0 km/h (0 Bft) N 0,00 h 0,0 UV-I 6 W/m 16,5 C 17,7 C 0,0 km/h (0 Bft)
25.06.2016 05:00 25,2 C 17,8 C 62 % 93 % 1010,3 hPa 0,0 l/m 0,2 km/h (0 Bft) S 0,00 h 0,0 UV-I 16 W/m 16,5 C 17,8 C 0,6 km/h (0 Bft)
25.06.2016 06:00 25,1 C 18,3 C 62 % 92 % 1010,1 hPa 0,0 l/m 0,2 km/h (0 Bft) N-NO 0,00 h 0,0 UV-I 40 W/m 16,9 C 18,3 C 0,5 km/h (0 Bft)
25.06.2016 07:00 25,1 C 20,3 C 63 % 86 % 1009,7 hPa 0,0 l/m 0,1 km/h (0 Bft) O-NO 0,60 h 1,0 UV-I 198 W/m 17,9 C 20,3 C 0,3 km/h (0 Bft)
25.06.2016 08:00 25,1 C 23,4 C 63 % 77 % 1009,5 hPa 0,0 l/m 0,0 km/h (0 Bft) N 1,00 h 1,8 UV-I 429 W/m 19,1 C 23,4 C 0,1 km/h (0 Bft)
25.06.2016 09:00 25,2 C 24,9 C 63 % 74 % 1009,3 hPa 0,0 l/m 0,6 km/h (0 Bft) S 1,00 h 2,2 UV-I 343 W/m 20,0 C 24,9 C 2,2 km/h (1 Bft)
25.06.2016 10:00 25,6 C 25,6 C 63 % 72 % 1009,6 hPa 0,0 l/m 4,9 km/h (1 Bft) S 1,00 h 3,6 UV-I 492 W/m 20,1 C 25,5 C 9,8 km/h (2 Bft)
25.06.2016 11:00 25,6 C 24,8 C 64 % 74 % 1009,6 hPa 0,0 l/m 4,1 km/h (1 Bft) S 1,00 h 4,3 UV-I 480 W/m 20,0 C 24,8 C 8,6 km/h (2 Bft)
25.06.2016 12:00 25,7 C 26,6 C 64 % 69 % 1009,2 hPa 0,0 l/m 3,9 km/h (1 Bft) S-SO 1,00 h 6,1 UV-I 735 W/m 20,4 C 26,5 C 8,2 km/h (2 Bft)
25.06.2016 13:00 25,9 C 27,2 C 64 % 64 % 1008,5 hPa 0,0 l/m 4,0 km/h (1 Bft) W 1,00 h 4,9 UV-I 478 W/m 19,9 C 27,2 C 8,7 km/h (2 Bft)
25.06.2016 14:00 26,0 C 27,6 C 64 % 60 % 1008,2 hPa 0,0 l/m 6,8 km/h (2 Bft) W-SW 1,00 h 5,0 UV-I 564 W/m 19,1 C 27,4 C 12,0 km/h (2 Bft)
25.06.2016 15:00 26,2 C 28,2 C 63 % 56 % 1008,0 hPa 0,0 l/m 6,7 km/h (2 Bft) W-SW 1,00 h 4,7 UV-I 638 W/m 18,5 C 28,1 C 12,6 km/h (3 Bft)
25.06.2016 16:00 26,4 C 28,3 C 63 % 55 % 1007,9 hPa 0,0 l/m 4,8 km/h (1 Bft) W-SW 1,00 h 3,7 UV-I 539 W/m 18,3 C 28,2 C 10,4 km/h (2 Bft)
25.06.2016 17:00 26,6 C 28,0 C 63 % 53 % 1007,6 hPa 0,0 l/m 5,7 km/h (1 Bft) W-SW 0,92 h 2,3 UV-I 406 W/m 17,6 C 27,9 C 12,2 km/h (3 Bft)
25.06.2016 18:00 26,4 C 27,0 C 63 % 55 % 1007,6 hPa 0,0 l/m 4,1 km/h (1 Bft) W 0,00 h 1,1 UV-I 92 W/m 17,1 C 27,0 C 9,2 km/h (2 Bft)
25.06.2016 19:00 26,4 C 26,0 C 62 % 57 % 1007,8 hPa 0,0 l/m 6,1 km/h (2 Bft) W 0,00 h 0,6 UV-I 54 W/m 16,9 C 25,8 C 12,2 km/h (2 Bft)
25.06.2016 20:00 26,4 C 24,9 C 63 % 58 % 1008,2 hPa 0,0 l/m 4,9 km/h (1 Bft) W 0,00 h 0,0 UV-I 55 W/m 16,1 C 24,8 C 11,6 km/h (2 Bft)
25.06.2016 21:00 26,3 C 22,1 C 60 % 66 % 1010,1 hPa 0,2 l/m 12,3 km/h (3 Bft) W-SW 0,00 h 0,0 UV-I 10 W/m 15,5 C 20,3 C 21,8 km/h (4 Bft)
25.06.2016 22:00 26,0 C 17,1 C 61 % 92 % 1012,5 hPa 5,6 l/m 3,1 km/h (1 Bft) W 0,00 h 0,0 UV-I 0 W/m 15,7 C 16,6 C 5,7 km/h (1 Bft)
25.06.2016 23:00 26,0 C 17,0 C 61 % 95 % 1012,6 hPa 1,4 l/m 0,0 km/h (0 Bft) N 0,00 h 0,0 UV-I 0 W/m 16,2 C 17,0 C 0,1 km/h (0 Bft)
26.06.2016 00:00 25,9 C 16,9 C 62 % 95 % 1012,4 hPa 0,2 l/m 5,1 km/h (1 Bft) W 0,00 h 0,0 UV-I 0 W/m 16,1 C 16,3 C 10,4 km/h (2 Bft)
26.06.2016 01:00 25,8 C 15,9 C 62 % 95 % 1012,6 hPa 0,0 l/m 3,9 km/h (1 Bft) W 0,00 h 0,0 UV-I 0 W/m 15,1 C 15,8 C 10,3 km/h (2 Bft)
26.06.2016 02:00 25,7 C 15,3 C 62 % 95 % 1013,1 hPa 0,0 l/m 1,7 km/h (1 Bft) W 0,00 h 0,0 UV-I 0 W/m 14,5 C 15,3 C 5,2 km/h (1 Bft)
26.06.2016 03:00 25,7 C 14,5 C 62 % 94 % 1013,8 hPa 0,0 l/m 0,7 km/h (0 Bft) W 0,00 h 0,0 UV-I 0 W/m 13,4 C 14,5 C 2,8 km/h (1 Bft)
26.06.2016 04:00 25,7 C 13,9 C 62 % 93 % 1014,6 hPa 0,0 l/m 0,7 km/h (0 Bft) NW 0,00 h 0,0 UV-I 0 W/m 12,8 C 13,9 C 2,5 km/h (1 Bft)
26.06.2016 05:00 25,7 C 14,0 C 62 % 92 % 1015,1 hPa 0,0 l/m 1,7 km/h (1 Bft) W-NW 0,00 h 0,0 UV-I 13 W/m 12,7 C 14,0 C 5,0 km/h (1 Bft)
26.06.2016 06:00 25,6 C 13,9 C 62 % 89 % 1015,8 hPa 0,0 l/m 1,7 km/h (1 Bft) W-NW 0,00 h 0,0 UV-I 44 W/m 12,1 C 13,9 C 5,3 km/h (1 Bft)
26.06.2016 07:00 25,6 C 14,0 C 62 % 85 % 1016,2 hPa 0,0 l/m 2,7 km/h (1 Bft) W-NW 0,12 h 0,8 UV-I 94 W/m 11,6 C 14,0 C 7,0 km/h (2 Bft)
26.06.2016 08:00 25,4 C 15,2 C 60 % 81 % 1016,3 hPa 0,0 l/m 1,3 km/h (1 Bft) W-NW 0,73 h 1,8 UV-I 382 W/m 12,0 C 15,2 C 3,4 km/h (1 Bft)
26.06.2016 09:00 25,1 C 16,4 C 57 % 77 % 1016,5 hPa 0,0 l/m 2,2 km/h (1 Bft) W-SW 1,00 h 2,5 UV-I 351 W/m 12,2 C 16,3 C 5,2 km/h (1 Bft)
26.06.2016 10:00 25,1 C 17,7 C 56 % 74 % 1016,6 hPa 0,0 l/m 1,7 km/h (1 Bft) S-SW 1,00 h 4,5 UV-I 688 W/m 13,0 C 17,7 C 4,6 km/h (1 Bft)
26.06.2016 11:00 24,9 C 19,3 C 54 % 62 % 1016,6 hPa 0,0 l/m 2,8 km/h (1 Bft) W-NW 1,00 h 5,5 UV-I 639 W/m 11,7 C 19,2 C 6,7 km/h (2 Bft)
26.06.2016 12:00 24,8 C 19,5 C 52 % 62 % 1016,7 hPa 0,0 l/m 2,7 km/h (1 Bft) S 1,00 h 5,5 UV-I 645 W/m 12,0 C 19,5 C 6,0 km/h (2 Bft)
26.06.2016 13:00 24,8 C 20,7 C 52 % 56 % 1016,6 hPa 0,0 l/m 4,0 km/h (1 Bft) W 1,00 h 6,7 UV-I 750 W/m 11,6 C 20,4 C 8,3 km/h (2 Bft)
26.06.2016 14:00 24,8 C 20,5 C 50 % 52 % 1016,5 hPa 0,0 l/m 3,8 km/h (1 Bft) W-SW 1,00 h 5,0 UV-I 501 W/m 10,4 C 20,3 C 7,9 km/h (2 Bft)
26.06.2016 15:00 24,9 C 20,9 C 49 % 51 % 1016,3 hPa 0,0 l/m 3,9 km/h (1 Bft) W 1,00 h 3,8 UV-I 469 W/m 10,4 C 20,8 C 8,4 km/h (2 Bft)
26.06.2016 16:00 25,0 C 19,9 C 49 % 53 % 1016,4 hPa 0,0 l/m 5,2 km/h (1 Bft) W-SW 1,00 h 2,1 UV-I 257 W/m 9,9 C 19,6 C 10,3 km/h (2 Bft)
26.06.2016 17:00 25,3 C 20,0 C 49 % 55 % 1016,2 hPa 0,0 l/m 2,2 km/h (1 Bft) W 0,82 h 1,6 UV-I 234 W/m 10,6 C 20,0 C 5,9 km/h (2 Bft)
26.06.2016 18:00 25,1 C 19,5 C 49 % 56 % 1016,2 hPa 0,0 l/m 1,8 km/h (1 Bft) W 0,45 h 0,9 UV-I 137 W/m 10,4 C 19,5 C 4,7 km/h (1 Bft)
26.06.2016 19:00 25,4 C 19,1 C 50 % 59 % 1016,5 hPa 0,0 l/m 0,1 km/h (0 Bft) SW 0,00 h 0,5 UV-I 64 W/m 10,8 C 19,1 C 0,8 km/h (0 Bft)
26.06.2016 20:00 25,4 C 18,2 C 51 % 66 % 1016,7 hPa 0,0 l/m 0,2 km/h (0 Bft) S 0,00 h 0,0 UV-I 43 W/m 11,7 C 18,2 C 0,6 km/h (0 Bft)
26.06.2016 21:00 25,4 C 17,3 C 51 % 72 % 1017,1 hPa 0,0 l/m 0,0 km/h (0 Bft) N 0,00 h 0,0 UV-I 11 W/m 12,2 C 17,3 C 0,0 km/h (0 Bft)
26.06.2016 22:00 25,4 C 16,6 C 51 % 76 % 1017,4 hPa 0,0 l/m 0,0 km/h (0 Bft) N 0,00 h 0,0 UV-I 0 W/m 12,4 C 16,6 C 0,0 km/h (0 Bft)
26.06.2016 23:00 25,3 C 15,6 C 52 % 83 % 1017,5 hPa 0,0 l/m 0,0 km/h (0 Bft) N 0,00 h 0,0 UV-I 0 W/m 12,6 C 15,6 C 0,0 km/h (0 Bft)
Min-Datum _ 20.06.16 20.06.16 20.06.16 24.06.16 25.06.16 - 20.06.16 - - - - 20.06.16 20.06.16 20.06.16
_ Min-Zeit 10:46 05:46 18:35 16:22 18:05 - 00:00 - - - - 05:42 05:46 00:00
Minimum _ 23,0 C 8,9 C 46 % 29 % 1007,3 hPa - 0,0 km/h (0 Bft) - - - - 8,2 C 8,9 C 0,0 km/h (0 Bft)
Max-Datum _ 25.06.16 24.06.16 22.06.16 20.06.16 22.06.16 25.06.16 25.06.16 - 25.06.16 26.06.16 22.06.16 25.06.16 24.06.16 25.06.16
_ Max-Zeit 17:17 16:18 10:56 06:04 08:02 22:05 21:32 - 09:47 13:06 14:31 10:28 16:18 21:40
Maximum _ 26,7 C 32,2 C 66 % 97 % 1024,2 hPa 5,6 l/m 27,4 km/h
W-SW (4 Bft)
- 0,10 h 8,5 UV-I 1232 W/m 21,5 C 32,2 C 43,5 km/h
W (6 Bft)
Durchschnitt _ 24,7 C 20,1 C 58 % 72 % 1018,0 hPa #7,4 l/m 2,0 km/h (1 Bft) W-SW #66:06 h 3,4 UV-I 330 W/m 14,5 C 20,1 C 4,5 km/h (1 Bft)